sensor_id;sensor_type;location;lat;lon;timestamp;P1;durP1;ratioP1;P2;durP2;ratioP2
53751;SDS011;41095;53.090;6.692;2023-02-15T00:01:45;22.25;;;18.95;;
53751;SDS011;41095;53.090;6.692;2023-02-15T00:04:16;19.10;;;16.52;;
53751;SDS011;41095;53.090;6.692;2023-02-15T00:06:43;23.08;;;17.67;;
53751;SDS011;41095;53.090;6.692;2023-02-15T00:09:09;21.02;;;18.75;;
53751;SDS011;41095;53.090;6.692;2023-02-15T00:11:36;22.52;;;19.30;;
53751;SDS011;41095;53.090;6.692;2023-02-15T00:14:09;25.92;;;20.60;;
53751;SDS011;41095;53.090;6.692;2023-02-15T00:16:40;25.95;;;19.92;;
53751;SDS011;41095;53.090;6.692;2023-02-15T00:19:07;22.70;;;18.98;;
53751;SDS011;41095;53.090;6.692;2023-02-15T00:21:34;20.77;;;17.63;;
53751;SDS011;41095;53.090;6.692;2023-02-15T00:24:01;19.52;;;16.15;;
53751;SDS011;41095;53.090;6.692;2023-02-15T00:26:29;16.98;;;14.77;;
53751;SDS011;41095;53.090;6.692;2023-02-15T00:28:55;16.42;;;14.20;;
53751;SDS011;41095;53.090;6.692;2023-02-15T00:31:23;17.38;;;15.65;;
53751;SDS011;41095;53.090;6.692;2023-02-15T00:33:49;14.15;;;12.88;;
53751;SDS011;41095;53.090;6.692;2023-02-15T00:36:15;15.50;;;13.88;;
53751;SDS011;41095;53.090;6.692;2023-02-15T00:38:41;14.73;;;13.20;;
53751;SDS011;41095;53.090;6.692;2023-02-15T00:41:08;16.30;;;14.52;;
53751;SDS011;41095;53.090;6.692;2023-02-15T00:43:34;19.83;;;17.80;;
53751;SDS011;41095;53.090;6.692;2023-02-15T00:46:01;18.38;;;15.93;;
53751;SDS011;41095;53.090;6.692;2023-02-15T00:48:28;23.75;;;18.52;;
53751;SDS011;41095;53.090;6.692;2023-02-15T00:50:56;25.10;;;19.38;;
53751;SDS011;41095;53.090;6.692;2023-02-15T00:53:24;20.35;;;17.77;;
53751;SDS011;41095;53.090;6.692;2023-02-15T00:55:51;18.75;;;16.75;;
53751;SDS011;41095;53.090;6.692;2023-02-15T00:58:17;17.90;;;16.08;;
53751;SDS011;41095;53.090;6.692;2023-02-15T01:00:43;19.45;;;17.33;;
53751;SDS011;41095;53.090;6.692;2023-02-15T01:03:10;20.42;;;17.55;;
53751;SDS011;41095;53.090;6.692;2023-02-15T01:05:36;23.90;;;19.08;;
53751;SDS011;41095;53.090;6.692;2023-02-15T01:08:02;20.08;;;18.05;;
53751;SDS011;41095;53.090;6.692;2023-02-15T01:10:28;21.45;;;18.08;;
53751;SDS011;41095;53.090;6.692;2023-02-15T01:12:54;25.50;;;21.05;;
53751;SDS011;41095;53.090;6.692;2023-02-15T01:15:20;33.47;;;25.58;;
53751;SDS011;41095;53.090;6.692;2023-02-15T01:17:46;33.47;;;27.23;;
53751;SDS011;41095;53.090;6.692;2023-02-15T01:20:17;41.58;;;29.02;;
53751;SDS011;41095;53.090;6.692;2023-02-15T01:22:44;40.58;;;30.70;;
53751;SDS011;41095;53.090;6.692;2023-02-15T01:25:09;58.03;;;39.55;;
53751;SDS011;41095;53.090;6.692;2023-02-15T01:27:35;71.68;;;37.50;;
53751;SDS011;41095;53.090;6.692;2023-02-15T01:30:01;45.55;;;32.63;;
53751;SDS011;41095;53.090;6.692;2023-02-15T01:32:29;34.65;;;26.77;;
53751;SDS011;41095;53.090;6.692;2023-02-15T01:34:55;42.35;;;33.15;;
53751;SDS011;41095;53.090;6.692;2023-02-15T01:37:21;41.22;;;31.83;;
53751;SDS011;41095;53.090;6.692;2023-02-15T01:39:47;39.95;;;31.33;;
53751;SDS011;41095;53.090;6.692;2023-02-15T01:42:13;47.63;;;36.33;;
53751;SDS011;41095;53.090;6.692;2023-02-15T01:44:49;42.03;;;33.92;;
53751;SDS011;41095;53.090;6.692;2023-02-15T01:53:17;45.63;;;32.97;;
53751;SDS011;41095;53.090;6.692;2023-02-15T01:58:35;45.63;;;33.10;;
53751;SDS011;41095;53.090;6.692;2023-02-15T02:01:01;39.38;;;31.40;;
53751;SDS011;41095;53.090;6.692;2023-02-15T02:06:18;41.08;;;33.80;;
53751;SDS011;41095;53.090;6.692;2023-02-15T02:08:45;38.75;;;33.38;;
53751;SDS011;41095;53.090;6.692;2023-02-15T02:11:12;39.17;;;30.70;;
53751;SDS011;41095;53.090;6.692;2023-02-15T02:13:39;30.77;;;27.35;;
53751;SDS011;41095;53.090;6.692;2023-02-15T02:24:01;33.08;;;25.70;;
53751;SDS011;41095;53.090;6.692;2023-02-15T02:29:56;31.10;;;23.10;;
53751;SDS011;41095;53.090;6.692;2023-02-15T02:33:01;28.70;;;23.13;;
53751;SDS011;41095;53.090;6.692;2023-02-15T02:35:56;27.85;;;21.92;;
53751;SDS011;41095;53.090;6.692;2023-02-15T02:44:03;31.05;;;25.48;;
53751;SDS011;41095;53.090;6.692;2023-02-15T02:46:32;31.60;;;26.95;;
53751;SDS011;41095;53.090;6.692;2023-02-15T02:49:02;33.38;;;25.65;;
53751;SDS011;41095;53.090;6.692;2023-02-15T02:51:27;30.50;;;24.60;;
53751;SDS011;41095;53.090;6.692;2023-02-15T02:53:54;32.78;;;25.88;;
53751;SDS011;41095;53.090;6.692;2023-02-15T02:56:43;32.40;;;26.52;;
53751;SDS011;41095;53.090;6.692;2023-02-15T02:59:15;37.05;;;29.23;;
53751;SDS011;41095;53.090;6.692;2023-02-15T03:01:46;31.30;;;27.63;;
53751;SDS011;41095;53.090;6.692;2023-02-15T03:04:21;38.38;;;31.60;;
53751;SDS011;41095;53.090;6.692;2023-02-15T03:06:56;37.35;;;30.40;;
53751;SDS011;41095;53.090;6.692;2023-02-15T03:09:39;34.92;;;30.58;;
53751;SDS011;41095;53.090;6.692;2023-02-15T03:12:12;35.30;;;30.83;;
53751;SDS011;41095;53.090;6.692;2023-02-15T03:17:12;37.30;;;30.50;;
53751;SDS011;41095;53.090;6.692;2023-02-15T03:19:39;32.78;;;29.20;;
53751;SDS011;41095;53.090;6.692;2023-02-15T03:22:08;37.42;;;29.15;;
53751;SDS011;41095;53.090;6.692;2023-02-15T03:24:49;36.05;;;29.73;;
53751;SDS011;41095;53.090;6.692;2023-02-15T03:27:17;35.50;;;28.95;;
53751;SDS011;41095;53.090;6.692;2023-02-15T03:29:48;32.63;;;28.52;;
53751;SDS011;41095;53.090;6.692;2023-02-15T03:32:18;32.78;;;27.73;;
53751;SDS011;41095;53.090;6.692;2023-02-15T03:34:44;32.33;;;27.77;;
53751;SDS011;41095;53.090;6.692;2023-02-15T03:37:15;32.30;;;28.10;;
53751;SDS011;41095;53.090;6.692;2023-02-15T03:39:59;37.30;;;30.25;;
53751;SDS011;41095;53.090;6.692;2023-02-15T03:43:00;34.00;;;26.42;;
53751;SDS011;41095;53.090;6.692;2023-02-15T03:45:34;28.85;;;23.38;;
53751;SDS011;41095;53.090;6.692;2023-02-15T03:48:03;39.40;;;31.05;;
53751;SDS011;41095;53.090;6.692;2023-02-15T03:50:31;34.03;;;29.02;;
53751;SDS011;41095;53.090;6.692;2023-02-15T03:53:19;30.98;;;26.27;;
53751;SDS011;41095;53.090;6.692;2023-02-15T03:55:48;31.40;;;27.50;;
53751;SDS011;41095;53.090;6.692;2023-02-15T03:58:15;29.25;;;24.33;;
53751;SDS011;41095;53.090;6.692;2023-02-15T04:00:59;32.90;;;25.85;;
53751;SDS011;41095;53.090;6.692;2023-02-15T04:03:54;31.98;;;26.75;;
53751;SDS011;41095;53.090;6.692;2023-02-15T04:06:27;30.98;;;24.95;;
53751;SDS011;41095;53.090;6.692;2023-02-15T04:08:53;36.30;;;28.85;;
53751;SDS011;41095;53.090;6.692;2023-02-15T04:11:37;33.88;;;26.98;;
53751;SDS011;41095;53.090;6.692;2023-02-15T04:14:03;31.80;;;28.05;;
53751;SDS011;41095;53.090;6.692;2023-02-15T04:16:48;32.20;;;28.10;;
53751;SDS011;41095;53.090;6.692;2023-02-15T04:19:14;36.45;;;29.98;;
53751;SDS011;41095;53.090;6.692;2023-02-15T04:21:58;32.60;;;28.83;;
53751;SDS011;41095;53.090;6.692;2023-02-15T04:24:43;31.75;;;28.30;;
53751;SDS011;41095;53.090;6.692;2023-02-15T04:27:27;31.83;;;28.38;;
53751;SDS011;41095;53.090;6.692;2023-02-15T04:29:53;35.13;;;28.60;;
53751;SDS011;41095;53.090;6.692;2023-02-15T04:32:18;32.70;;;28.63;;
53751;SDS011;41095;53.090;6.692;2023-02-15T04:34:44;31.23;;;27.23;;
53751;SDS011;41095;53.090;6.692;2023-02-15T04:37:10;30.98;;;27.45;;
53751;SDS011;41095;53.090;6.692;2023-02-15T04:39:35;31.50;;;27.05;;
53751;SDS011;41095;53.090;6.692;2023-02-15T04:42:01;31.02;;;26.45;;
53751;SDS011;41095;53.090;6.692;2023-02-15T04:44:27;33.47;;;29.13;;
53751;SDS011;41095;53.090;6.692;2023-02-15T04:46:53;38.90;;;32.63;;
53751;SDS011;41095;53.090;6.692;2023-02-15T04:49:19;40.80;;;34.17;;
53751;SDS011;41095;53.090;6.692;2023-02-15T04:51:45;247.88;;;72.43;;
53751;SDS011;41095;53.090;6.692;2023-02-15T04:54:11;146.90;;;48.03;;
53751;SDS011;41095;53.090;6.692;2023-02-15T04:56:36;243.85;;;51.83;;
53751;SDS011;41095;53.090;6.692;2023-02-15T04:59:03;91.80;;;38.28;;
53751;SDS011;41095;53.090;6.692;2023-02-15T05:01:29;84.15;;;38.08;;
53751;SDS011;41095;53.090;6.692;2023-02-15T05:03:55;56.20;;;37.38;;
53751;SDS011;41095;53.090;6.692;2023-02-15T05:06:21;102.13;;;43.75;;
53751;SDS011;41095;53.090;6.692;2023-02-15T05:08:47;68.47;;;36.08;;
53751;SDS011;41095;53.090;6.692;2023-02-15T05:11:13;69.70;;;37.65;;
53751;SDS011;41095;53.090;6.692;2023-02-15T05:13:39;50.97;;;36.80;;
53751;SDS011;41095;53.090;6.692;2023-02-15T05:16:04;45.30;;;34.33;;
53751;SDS011;41095;53.090;6.692;2023-02-15T05:18:30;41.38;;;35.40;;
53751;SDS011;41095;53.090;6.692;2023-02-15T05:20:55;43.45;;;33.63;;
53751;SDS011;41095;53.090;6.692;2023-02-15T05:23:21;39.92;;;32.00;;
53751;SDS011;41095;53.090;6.692;2023-02-15T05:25:48;75.70;;;41.28;;
53751;SDS011;41095;53.090;6.692;2023-02-15T05:28:33;60.67;;;34.22;;
53751;SDS011;41095;53.090;6.692;2023-02-15T05:31:06;52.53;;;37.65;;
53751;SDS011;41095;53.090;6.692;2023-02-15T05:33:39;42.08;;;33.95;;
53751;SDS011;41095;53.090;6.692;2023-02-15T05:36:05;36.75;;;31.25;;
53751;SDS011;41095;53.090;6.692;2023-02-15T05:38:32;40.65;;;33.60;;
53751;SDS011;41095;53.090;6.692;2023-02-15T05:40:58;36.92;;;32.75;;
53751;SDS011;41095;53.090;6.692;2023-02-15T05:43:25;36.35;;;30.23;;
53751;SDS011;41095;53.090;6.692;2023-02-15T05:45:51;37.22;;;33.33;;
53751;SDS011;41095;53.090;6.692;2023-02-15T05:48:19;39.70;;;32.85;;
53751;SDS011;41095;53.090;6.692;2023-02-15T05:50:46;35.63;;;31.75;;
53751;SDS011;41095;53.090;6.692;2023-02-15T05:53:11;35.63;;;31.58;;
53751;SDS011;41095;53.090;6.692;2023-02-15T05:55:40;37.92;;;31.23;;
53751;SDS011;41095;53.090;6.692;2023-02-15T05:58:06;32.42;;;28.80;;
53751;SDS011;41095;53.090;6.692;2023-02-15T06:00:32;36.75;;;31.27;;
53751;SDS011;41095;53.090;6.692;2023-02-15T06:02:59;34.38;;;29.15;;
53751;SDS011;41095;53.090;6.692;2023-02-15T06:05:25;34.03;;;29.92;;
53751;SDS011;41095;53.090;6.692;2023-02-15T06:07:50;36.22;;;31.40;;
53751;SDS011;41095;53.090;6.692;2023-02-15T06:10:16;43.13;;;35.60;;
53751;SDS011;41095;53.090;6.692;2023-02-15T06:12:43;44.08;;;35.60;;
53751;SDS011;41095;53.090;6.692;2023-02-15T06:15:09;43.60;;;35.10;;
53751;SDS011;41095;53.090;6.692;2023-02-15T06:17:34;44.35;;;38.17;;
53751;SDS011;41095;53.090;6.692;2023-02-15T06:20:00;42.83;;;36.53;;
53751;SDS011;41095;53.090;6.692;2023-02-15T06:22:26;45.00;;;40.03;;
53751;SDS011;41095;53.090;6.692;2023-02-15T06:24:51;41.80;;;35.45;;
53751;SDS011;41095;53.090;6.692;2023-02-15T06:27:17;49.17;;;40.35;;
53751;SDS011;41095;53.090;6.692;2023-02-15T06:29:43;44.42;;;38.53;;
53751;SDS011;41095;53.090;6.692;2023-02-15T06:32:09;49.67;;;39.78;;
53751;SDS011;41095;53.090;6.692;2023-02-15T06:34:34;44.00;;;36.28;;
53751;SDS011;41095;53.090;6.692;2023-02-15T06:37:00;45.85;;;36.58;;
53751;SDS011;41095;53.090;6.692;2023-02-15T06:39:26;45.00;;;39.95;;
53751;SDS011;41095;53.090;6.692;2023-02-15T06:41:51;49.75;;;39.33;;
53751;SDS011;41095;53.090;6.692;2023-02-15T06:44:17;50.20;;;41.47;;
53751;SDS011;41095;53.090;6.692;2023-02-15T06:46:43;52.08;;;43.05;;
53751;SDS011;41095;53.090;6.692;2023-02-15T06:49:08;49.05;;;42.97;;
53751;SDS011;41095;53.090;6.692;2023-02-15T06:51:34;50.95;;;42.38;;
53751;SDS011;41095;53.090;6.692;2023-02-15T06:54:00;43.75;;;37.75;;
53751;SDS011;41095;53.090;6.692;2023-02-15T06:56:25;49.17;;;38.53;;
53751;SDS011;41095;53.090;6.692;2023-02-15T06:58:51;45.92;;;34.75;;
53751;SDS011;41095;53.090;6.692;2023-02-15T07:01:17;52.92;;;40.78;;
53751;SDS011;41095;53.090;6.692;2023-02-15T07:03:43;39.67;;;34.63;;
53751;SDS011;41095;53.090;6.692;2023-02-15T07:06:09;54.47;;;46.25;;
53751;SDS011;41095;53.090;6.692;2023-02-15T07:08:36;50.65;;;44.88;;
53751;SDS011;41095;53.090;6.692;2023-02-15T07:11:03;48.72;;;42.58;;
53751;SDS011;41095;53.090;6.692;2023-02-15T07:13:48;57.95;;;42.65;;
53751;SDS011;41095;53.090;6.692;2023-02-15T07:16:14;52.42;;;42.00;;
53751;SDS011;41095;53.090;6.692;2023-02-15T07:18:40;47.17;;;38.78;;
53751;SDS011;41095;53.090;6.692;2023-02-15T07:21:06;49.63;;;41.20;;
53751;SDS011;41095;53.090;6.692;2023-02-15T07:23:36;52.90;;;40.50;;
53751;SDS011;41095;53.090;6.692;2023-02-15T07:26:03;48.83;;;39.28;;
53751;SDS011;41095;53.090;6.692;2023-02-15T07:28:29;49.88;;;40.55;;
53751;SDS011;41095;53.090;6.692;2023-02-15T07:30:55;45.80;;;38.00;;
53751;SDS011;41095;53.090;6.692;2023-02-15T07:33:22;47.05;;;37.97;;
53751;SDS011;41095;53.090;6.692;2023-02-15T07:35:52;43.95;;;37.08;;
53751;SDS011;41095;53.090;6.692;2023-02-15T07:38:19;44.58;;;37.40;;
53751;SDS011;41095;53.090;6.692;2023-02-15T07:40:45;39.35;;;34.63;;
53751;SDS011;41095;53.090;6.692;2023-02-15T07:43:11;35.88;;;27.77;;
53751;SDS011;41095;53.090;6.692;2023-02-15T07:45:37;48.25;;;38.92;;
53751;SDS011;41095;53.090;6.692;2023-02-15T07:48:03;48.72;;;36.88;;
53751;SDS011;41095;53.090;6.692;2023-02-15T07:50:30;45.90;;;34.80;;
53751;SDS011;41095;53.090;6.692;2023-02-15T07:52:57;41.65;;;34.40;;
53751;SDS011;41095;53.090;6.692;2023-02-15T07:55:23;34.78;;;29.17;;
53751;SDS011;41095;53.090;6.692;2023-02-15T07:57:50;43.78;;;33.88;;
53751;SDS011;41095;53.090;6.692;2023-02-15T08:00:17;46.85;;;34.83;;
53751;SDS011;41095;53.090;6.692;2023-02-15T08:05:36;41.83;;;33.83;;
53751;SDS011;41095;53.090;6.692;2023-02-15T08:08:01;35.13;;;26.83;;
53751;SDS011;41095;53.090;6.692;2023-02-15T08:10:27;42.55;;;34.72;;
53751;SDS011;41095;53.090;6.692;2023-02-15T08:13:11;45.75;;;36.45;;
53751;SDS011;41095;53.090;6.692;2023-02-15T08:15:37;42.88;;;33.05;;
53751;SDS011;41095;53.090;6.692;2023-02-15T08:18:03;43.25;;;33.75;;
53751;SDS011;41095;53.090;6.692;2023-02-15T08:20:28;46.33;;;34.65;;
53751;SDS011;41095;53.090;6.692;2023-02-15T08:22:54;47.50;;;36.00;;
53751;SDS011;41095;53.090;6.692;2023-02-15T08:25:20;42.05;;;33.05;;
53751;SDS011;41095;53.090;6.692;2023-02-15T08:27:45;42.92;;;33.00;;
53751;SDS011;41095;53.090;6.692;2023-02-15T08:30:11;41.95;;;33.83;;
53751;SDS011;41095;53.090;6.692;2023-02-15T08:32:39;32.60;;;29.08;;
53751;SDS011;41095;53.090;6.692;2023-02-15T08:35:05;40.45;;;32.22;;
53751;SDS011;41095;53.090;6.692;2023-02-15T08:37:31;44.47;;;34.22;;
53751;SDS011;41095;53.090;6.692;2023-02-15T08:39:57;44.40;;;31.98;;
53751;SDS011;41095;53.090;6.692;2023-02-15T08:42:22;41.63;;;32.63;;
53751;SDS011;41095;53.090;6.692;2023-02-15T08:44:48;41.97;;;31.10;;
53751;SDS011;41095;53.090;6.692;2023-02-15T08:47:15;39.97;;;30.00;;
53751;SDS011;41095;53.090;6.692;2023-02-15T08:49:41;42.17;;;30.30;;
53751;SDS011;41095;53.090;6.692;2023-02-15T08:52:07;36.38;;;29.00;;
53751;SDS011;41095;53.090;6.692;2023-02-15T08:54:32;39.30;;;28.65;;
53751;SDS011;41095;53.090;6.692;2023-02-15T08:56:58;38.75;;;29.38;;
53751;SDS011;41095;53.090;6.692;2023-02-15T08:59:24;45.28;;;30.90;;
53751;SDS011;41095;53.090;6.692;2023-02-15T09:01:52;39.35;;;32.15;;
53751;SDS011;41095;53.090;6.692;2023-02-15T09:04:19;39.80;;;27.83;;
53751;SDS011;41095;53.090;6.692;2023-02-15T09:06:45;38.50;;;27.38;;
53751;SDS011;41095;53.090;6.692;2023-02-15T09:09:12;37.15;;;28.58;;
53751;SDS011;41095;53.090;6.692;2023-02-15T09:11:39;39.78;;;28.65;;
53751;SDS011;41095;53.090;6.692;2023-02-15T09:14:11;39.25;;;28.58;;
53751;SDS011;41095;53.090;6.692;2023-02-15T09:16:39;39.78;;;27.98;;
53751;SDS011;41095;53.090;6.692;2023-02-15T09:19:07;39.70;;;27.15;;
53751;SDS011;41095;53.090;6.692;2023-02-15T09:21:35;40.75;;;27.75;;
53751;SDS011;41095;53.090;6.692;2023-02-15T09:24:03;37.85;;;25.08;;
53751;SDS011;41095;53.090;6.692;2023-02-15T09:26:31;34.85;;;26.35;;
53751;SDS011;41095;53.090;6.692;2023-02-15T09:28:59;39.03;;;27.15;;
53751;SDS011;41095;53.090;6.692;2023-02-15T09:31:27;33.53;;;24.58;;
53751;SDS011;41095;53.090;6.692;2023-02-15T09:34:06;35.78;;;25.65;;
53751;SDS011;41095;53.090;6.692;2023-02-15T09:36:33;35.45;;;26.33;;
53751;SDS011;41095;53.090;6.692;2023-02-15T09:39:03;40.33;;;27.58;;
53751;SDS011;41095;53.090;6.692;2023-02-15T09:41:38;36.05;;;25.60;;
53751;SDS011;41095;53.090;6.692;2023-02-15T09:50:09;34.53;;;25.08;;
53751;SDS011;41095;53.090;6.692;2023-02-15T09:53:10;38.60;;;25.63;;
53751;SDS011;41095;53.090;6.692;2023-02-15T10:06:48;37.67;;;26.17;;
53751;SDS011;41095;53.090;6.692;2023-02-15T10:20:36;35.20;;;23.75;;
53751;SDS011;41095;53.090;6.692;2023-02-15T10:33:51;37.08;;;23.92;;
53751;SDS011;41095;53.090;6.692;2023-02-15T11:07:06;34.60;;;23.55;;
53751;SDS011;41095;53.090;6.692;2023-02-15T11:09:44;38.40;;;24.75;;
53751;SDS011;41095;53.090;6.692;2023-02-15T11:12:26;34.05;;;22.42;;
53751;SDS011;41095;53.090;6.692;2023-02-15T11:14:58;34.67;;;22.98;;
53751;SDS011;41095;53.090;6.692;2023-02-15T11:17:39;33.15;;;22.75;;
53751;SDS011;41095;53.090;6.692;2023-02-15T11:22:47;39.83;;;25.80;;
53751;SDS011;41095;53.090;6.692;2023-02-15T11:25:17;34.33;;;23.80;;
53751;SDS011;41095;53.090;6.692;2023-02-15T11:27:46;35.90;;;23.33;;
53751;SDS011;41095;53.090;6.692;2023-02-15T11:30:16;36.88;;;23.55;;
53751;SDS011;41095;53.090;6.692;2023-02-15T11:32:50;34.22;;;23.83;;
53751;SDS011;41095;53.090;6.692;2023-02-15T11:35:27;37.22;;;23.48;;
53751;SDS011;41095;53.090;6.692;2023-02-15T11:38:14;29.38;;;23.27;;
53751;SDS011;41095;53.090;6.692;2023-02-15T11:40:47;35.60;;;22.85;;
53751;SDS011;41095;53.090;6.692;2023-02-15T11:45:44;34.42;;;23.08;;
53751;SDS011;41095;53.090;6.692;2023-02-15T11:48:11;42.42;;;23.92;;
53751;SDS011;41095;53.090;6.692;2023-02-15T11:50:39;37.80;;;23.02;;
53751;SDS011;41095;53.090;6.692;2023-02-15T11:53:09;32.22;;;21.88;;
53751;SDS011;41095;53.090;6.692;2023-02-15T11:55:41;34.47;;;23.35;;
53751;SDS011;41095;53.090;6.692;2023-02-15T12:01:20;34.70;;;22.42;;
53751;SDS011;41095;53.090;6.692;2023-02-15T12:04:01;35.05;;;22.25;;
53751;SDS011;41095;53.090;6.692;2023-02-15T12:06:41;32.60;;;22.42;;
53751;SDS011;41095;53.090;6.692;2023-02-15T12:09:18;35.88;;;23.00;;
53751;SDS011;41095;53.090;6.692;2023-02-15T12:11:54;40.17;;;24.80;;
53751;SDS011;41095;53.090;6.692;2023-02-15T12:14:47;37.92;;;23.15;;
53751;SDS011;41095;53.090;6.692;2023-02-15T12:17:14;32.35;;;22.33;;
53751;SDS011;41095;53.090;6.692;2023-02-15T12:19:41;37.30;;;25.42;;
53751;SDS011;41095;53.090;6.692;2023-02-15T12:22:20;37.42;;;23.40;;
53751;SDS011;41095;53.090;6.692;2023-02-15T12:25:02;34.25;;;22.48;;
53751;SDS011;41095;53.090;6.692;2023-02-15T12:27:36;37.85;;;24.65;;
53751;SDS011;41095;53.090;6.692;2023-02-15T12:32:53;37.60;;;24.23;;
53751;SDS011;41095;53.090;6.692;2023-02-15T12:35:32;41.35;;;26.08;;
53751;SDS011;41095;53.090;6.692;2023-02-15T12:38:05;40.05;;;26.17;;
53751;SDS011;41095;53.090;6.692;2023-02-15T12:40:58;39.17;;;26.48;;
53751;SDS011;41095;53.090;6.692;2023-02-15T12:43:34;40.13;;;25.02;;
53751;SDS011;41095;53.090;6.692;2023-02-15T12:49:02;42.00;;;27.50;;
53751;SDS011;41095;53.090;6.692;2023-02-15T12:51:44;47.05;;;28.15;;
53751;SDS011;41095;53.090;6.692;2023-02-15T12:56:49;36.35;;;24.20;;
53751;SDS011;41095;53.090;6.692;2023-02-15T12:59:15;42.38;;;25.88;;
53751;SDS011;41095;53.090;6.692;2023-02-15T13:01:47;42.65;;;28.27;;
53751;SDS011;41095;53.090;6.692;2023-02-15T13:04:15;41.58;;;25.63;;
53751;SDS011;41095;53.090;6.692;2023-02-15T13:06:51;38.90;;;25.90;;
53751;SDS011;41095;53.090;6.692;2023-02-15T13:11:57;40.40;;;24.92;;
53751;SDS011;41095;53.090;6.692;2023-02-15T13:14:46;41.47;;;26.35;;
53751;SDS011;41095;53.090;6.692;2023-02-15T13:17:16;38.50;;;26.38;;
53751;SDS011;41095;53.090;6.692;2023-02-15T13:22:37;40.25;;;26.38;;
53751;SDS011;41095;53.090;6.692;2023-02-15T13:25:25;44.10;;;28.48;;
53751;SDS011;41095;53.090;6.692;2023-02-15T13:27:59;38.53;;;25.05;;
53751;SDS011;41095;53.090;6.692;2023-02-15T13:30:28;38.60;;;25.77;;
53751;SDS011;41095;53.090;6.692;2023-02-15T13:33:11;36.15;;;24.23;;
53751;SDS011;41095;53.090;6.692;2023-02-15T13:35:44;39.95;;;24.10;;
53751;SDS011;41095;53.090;6.692;2023-02-15T13:38:32;39.60;;;25.20;;
53751;SDS011;41095;53.090;6.692;2023-02-15T13:52:38;41.83;;;24.17;;
53751;SDS011;41095;53.090;6.692;2023-02-15T13:55:33;33.42;;;22.20;;
53751;SDS011;41095;53.090;6.692;2023-02-15T14:01:03;37.33;;;24.40;;
53751;SDS011;41095;53.090;6.692;2023-02-15T14:11:47;37.90;;;25.13;;
53751;SDS011;41095;53.090;6.692;2023-02-15T14:19:40;35.10;;;23.50;;
53751;SDS011;41095;53.090;6.692;2023-02-15T14:30:56;30.15;;;22.13;;
53751;SDS011;41095;53.090;6.692;2023-02-15T14:35:54;32.10;;;21.90;;
53751;SDS011;41095;53.090;6.692;2023-02-15T14:38:26;31.83;;;22.00;;
53751;SDS011;41095;53.090;6.692;2023-02-15T14:41:05;33.72;;;22.17;;
53751;SDS011;41095;53.090;6.692;2023-02-15T14:59:41;27.17;;;22.45;;
53751;SDS011;41095;53.090;6.692;2023-02-15T15:04:44;34.45;;;22.08;;
53751;SDS011;41095;53.090;6.692;2023-02-15T15:12:53;24.73;;;18.42;;
53751;SDS011;41095;53.090;6.692;2023-02-15T15:18:08;38.60;;;21.20;;
53751;SDS011;41095;53.090;6.692;2023-02-15T15:20:40;29.33;;;18.42;;
53751;SDS011;41095;53.090;6.692;2023-02-15T15:50:00;41.58;;;23.98;;
53751;SDS011;41095;53.090;6.692;2023-02-15T15:52:26;33.25;;;23.85;;
53751;SDS011;41095;53.090;6.692;2023-02-15T15:54:55;33.05;;;20.33;;
53751;SDS011;41095;53.090;6.692;2023-02-15T15:57:34;35.75;;;22.73;;
53751;SDS011;41095;53.090;6.692;2023-02-15T16:00:04;31.70;;;22.52;;
53751;SDS011;41095;53.090;6.692;2023-02-15T16:02:53;35.28;;;24.77;;
53751;SDS011;41095;53.090;6.692;2023-02-15T16:05:20;37.20;;;25.15;;
53751;SDS011;41095;53.090;6.692;2023-02-15T16:07:46;38.50;;;25.58;;
53751;SDS011;41095;53.090;6.692;2023-02-15T16:10:25;37.50;;;24.98;;
53751;SDS011;41095;53.090;6.692;2023-02-15T16:12:52;32.25;;;21.95;;
53751;SDS011;41095;53.090;6.692;2023-02-15T16:15:20;34.75;;;21.10;;
53751;SDS011;41095;53.090;6.692;2023-02-15T16:17:50;31.13;;;19.80;;
53751;SDS011;41095;53.090;6.692;2023-02-15T16:20:26;31.93;;;21.90;;
53751;SDS011;41095;53.090;6.692;2023-02-15T16:23:10;37.78;;;24.05;;
53751;SDS011;41095;53.090;6.692;2023-02-15T16:26:02;33.83;;;24.13;;
53751;SDS011;41095;53.090;6.692;2023-02-15T16:28:58;41.85;;;24.88;;
53751;SDS011;41095;53.090;6.692;2023-02-15T16:31:24;38.42;;;24.63;;
53751;SDS011;41095;53.090;6.692;2023-02-15T16:33:52;30.83;;;19.92;;
53751;SDS011;41095;53.090;6.692;2023-02-15T16:41:27;33.90;;;21.67;;
53751;SDS011;41095;53.090;6.692;2023-02-15T16:43:55;42.03;;;24.88;;
53751;SDS011;41095;53.090;6.692;2023-02-15T16:46:25;37.47;;;23.48;;
53751;SDS011;41095;53.090;6.692;2023-02-15T16:49:04;38.25;;;24.27;;
53751;SDS011;41095;53.090;6.692;2023-02-15T16:51:36;41.67;;;25.08;;
53751;SDS011;41095;53.090;6.692;2023-02-15T16:54:06;38.20;;;25.55;;
53751;SDS011;41095;53.090;6.692;2023-02-15T16:56:33;33.20;;;22.70;;
53751;SDS011;41095;53.090;6.692;2023-02-15T16:59:01;35.28;;;21.85;;
53751;SDS011;41095;53.090;6.692;2023-02-15T17:01:29;37.83;;;22.45;;
53751;SDS011;41095;53.090;6.692;2023-02-15T17:04:10;39.08;;;24.60;;
53751;SDS011;41095;53.090;6.692;2023-02-15T17:07:19;42.25;;;30.70;;
53751;SDS011;41095;53.090;6.692;2023-02-15T17:09:54;44.42;;;30.48;;
53751;SDS011;41095;53.090;6.692;2023-02-15T17:15:30;41.78;;;30.38;;
53751;SDS011;41095;53.090;6.692;2023-02-15T17:17:58;38.17;;;26.02;;
53751;SDS011;41095;53.090;6.692;2023-02-15T17:20:27;36.72;;;27.20;;
53751;SDS011;41095;53.090;6.692;2023-02-15T17:22:53;37.45;;;26.67;;
53751;SDS011;41095;53.090;6.692;2023-02-15T17:25:25;40.17;;;28.98;;
53751;SDS011;41095;53.090;6.692;2023-02-15T17:27:57;48.22;;;33.60;;
53751;SDS011;41095;53.090;6.692;2023-02-15T17:30:24;35.97;;;26.83;;
53751;SDS011;41095;53.090;6.692;2023-02-15T17:32:55;52.90;;;35.30;;
53751;SDS011;41095;53.090;6.692;2023-02-15T17:35:24;43.17;;;30.02;;
53751;SDS011;41095;53.090;6.692;2023-02-15T17:38:06;49.10;;;31.85;;
53751;SDS011;41095;53.090;6.692;2023-02-15T17:40:41;36.03;;;23.85;;
53751;SDS011;41095;53.090;6.692;2023-02-15T17:43:07;33.47;;;21.63;;
53751;SDS011;41095;53.090;6.692;2023-02-15T17:45:39;31.73;;;21.95;;
53751;SDS011;41095;53.090;6.692;2023-02-15T17:48:19;36.38;;;22.73;;
53751;SDS011;41095;53.090;6.692;2023-02-15T17:51:03;34.33;;;23.30;;
53751;SDS011;41095;53.090;6.692;2023-02-15T17:53:30;27.73;;;17.77;;
53751;SDS011;41095;53.090;6.692;2023-02-15T17:55:56;31.58;;;19.80;;
53751;SDS011;41095;53.090;6.692;2023-02-15T17:58:22;32.50;;;21.65;;
53751;SDS011;41095;53.090;6.692;2023-02-15T18:00:49;37.33;;;25.55;;
53751;SDS011;41095;53.090;6.692;2023-02-15T18:03:39;35.28;;;24.30;;
53751;SDS011;41095;53.090;6.692;2023-02-15T18:06:24;40.55;;;25.67;;
53751;SDS011;41095;53.090;6.692;2023-02-15T18:09:18;41.30;;;25.75;;
53751;SDS011;41095;53.090;6.692;2023-02-15T18:12:22;38.10;;;24.50;;
53751;SDS011;41095;53.090;6.692;2023-02-15T18:14:49;39.25;;;24.67;;
53751;SDS011;41095;53.090;6.692;2023-02-15T18:17:16;30.08;;;22.35;;
53751;SDS011;41095;53.090;6.692;2023-02-15T18:19:43;29.75;;;19.17;;
53751;SDS011;41095;53.090;6.692;2023-02-15T18:22:11;32.97;;;22.13;;
53751;SDS011;41095;53.090;6.692;2023-02-15T18:24:38;35.80;;;22.88;;
53751;SDS011;41095;53.090;6.692;2023-02-15T18:27:04;36.50;;;24.15;;
53751;SDS011;41095;53.090;6.692;2023-02-15T18:29:30;33.13;;;21.67;;